Geneva, Illinois
Current Conditions -  °F | °C
As of 5:52 AM on Friday 24 Oct 2014 (Local Time) from KDPA Reporting Station
Overcast Overcast  
Wind Chill: 52°   Ceiling: 2500
Heat Index: 52°   Visibility: 10mi
Dew Point: 45°   Wind: 5mph
Humidity: 77%   Direction: 220°SW
Pressure: 30.05"   Gusts: NA
Location:  41.89°N, 88.3°W
Report Text: KDPA 241052Z AUTO 22004KT 10SM OVC025 11/07 A3005 RMK AO2 SLP177 T01110072
Loading
Personal Weather Stations






























Interactive Weather Map
Tropical Storm Tracking
New forecast layout! Learn more

10-Day Weather Forecast

Advertisements
Track Severe Weather on mobile